sensor_id;sensor_type;location;lat;lon;timestamp;P1;durP1;ratioP1;P2;durP2;ratioP2
35540;SDS011;21650;48.840;9.162;2022-11-15T00:00:15;9.27;;;5.97;;
35540;SDS011;21650;48.840;9.162;2022-11-15T00:02:41;9.03;;;5.73;;
35540;SDS011;21650;48.840;9.162;2022-11-15T00:05:06;9.67;;;6.00;;
35540;SDS011;21650;48.840;9.162;2022-11-15T00:07:32;11.47;;;6.20;;
35540;SDS011;21650;48.840;9.162;2022-11-15T00:10:00;9.57;;;6.50;;
35540;SDS011;21650;48.840;9.162;2022-11-15T00:12:27;10.43;;;5.10;;
35540;SDS011;21650;48.840;9.162;2022-11-15T00:14:53;7.50;;;4.43;;
35540;SDS011;21650;48.840;9.162;2022-11-15T00:17:19;8.87;;;4.53;;
35540;SDS011;21650;48.840;9.162;2022-11-15T00:19:44;9.23;;;3.80;;
35540;SDS011;21650;48.840;9.162;2022-11-15T00:22:10;3.43;;;2.90;;
35540;SDS011;21650;48.840;9.162;2022-11-15T00:24:36;5.60;;;3.47;;
35540;SDS011;21650;48.840;9.162;2022-11-15T00:27:01;6.53;;;2.90;;
35540;SDS011;21650;48.840;9.162;2022-11-15T00:29:27;5.93;;;2.90;;
35540;SDS011;21650;48.840;9.162;2022-11-15T00:31:53;4.43;;;3.17;;
35540;SDS011;21650;48.840;9.162;2022-11-15T00:34:18;8.97;;;4.17;;
35540;SDS011;21650;48.840;9.162;2022-11-15T00:36:44;9.77;;;5.83;;
35540;SDS011;21650;48.840;9.162;2022-11-15T00:39:12;16.03;;;8.83;;
35540;SDS011;21650;48.840;9.162;2022-11-15T00:41:37;16.60;;;8.63;;
35540;SDS011;21650;48.840;9.162;2022-11-15T00:44:03;13.50;;;8.40;;
35540;SDS011;21650;48.840;9.162;2022-11-15T00:46:29;13.13;;;7.40;;
35540;SDS011;21650;48.840;9.162;2022-11-15T00:48:54;6.87;;;4.90;;
35540;SDS011;21650;48.840;9.162;2022-11-15T00:51:20;12.03;;;5.43;;
35540;SDS011;21650;48.840;9.162;2022-11-15T00:53:46;6.37;;;4.20;;
35540;SDS011;21650;48.840;9.162;2022-11-15T00:56:11;5.33;;;3.50;;
35540;SDS011;21650;48.840;9.162;2022-11-15T00:58:38;5.53;;;3.40;;
35540;SDS011;21650;48.840;9.162;2022-11-15T01:01:08;6.63;;;3.47;;
35540;SDS011;21650;48.840;9.162;2022-11-15T01:03:36;6.80;;;3.53;;
35540;SDS011;21650;48.840;9.162;2022-11-15T01:06:02;6.03;;;3.30;;
35540;SDS011;21650;48.840;9.162;2022-11-15T01:08:28;4.40;;;3.27;;
35540;SDS011;21650;48.840;9.162;2022-11-15T01:10:54;7.20;;;3.93;;
35540;SDS011;21650;48.840;9.162;2022-11-15T01:13:29;4.27;;;3.37;;
35540;SDS011;21650;48.840;9.162;2022-11-15T01:15:59;5.73;;;3.47;;
35540;SDS011;21650;48.840;9.162;2022-11-15T01:18:30;4.80;;;3.40;;
35540;SDS011;21650;48.840;9.162;2022-11-15T01:20:55;6.60;;;3.40;;
35540;SDS011;21650;48.840;9.162;2022-11-15T01:23:21;5.40;;;3.43;;
35540;SDS011;21650;48.840;9.162;2022-11-15T01:25:47;7.27;;;3.77;;
35540;SDS011;21650;48.840;9.162;2022-11-15T01:28:12;4.47;;;3.00;;
35540;SDS011;21650;48.840;9.162;2022-11-15T01:30:38;5.80;;;4.40;;
35540;SDS011;21650;48.840;9.162;2022-11-15T01:33:03;4.60;;;2.97;;
35540;SDS011;21650;48.840;9.162;2022-11-15T01:35:29;5.47;;;3.07;;
35540;SDS011;21650;48.840;9.162;2022-11-15T01:37:54;3.83;;;3.20;;
35540;SDS011;21650;48.840;9.162;2022-11-15T01:40:20;6.30;;;3.43;;
35540;SDS011;21650;48.840;9.162;2022-11-15T01:42:45;6.10;;;3.63;;
35540;SDS011;21650;48.840;9.162;2022-11-15T01:45:13;6.23;;;4.00;;
35540;SDS011;21650;48.840;9.162;2022-11-15T01:47:40;7.07;;;3.80;;
35540;SDS011;21650;48.840;9.162;2022-11-15T01:50:12;8.87;;;3.97;;
35540;SDS011;21650;48.840;9.162;2022-11-15T01:52:42;7.73;;;4.20;;
35540;SDS011;21650;48.840;9.162;2022-11-15T01:55:09;9.77;;;4.70;;
35540;SDS011;21650;48.840;9.162;2022-11-15T01:57:39;7.47;;;4.90;;
35540;SDS011;21650;48.840;9.162;2022-11-15T02:00:07;6.67;;;4.17;;
35540;SDS011;21650;48.840;9.162;2022-11-15T02:02:33;8.93;;;5.10;;
35540;SDS011;21650;48.840;9.162;2022-11-15T02:05:01;7.10;;;4.73;;
35540;SDS011;21650;48.840;9.162;2022-11-15T02:07:26;9.60;;;4.97;;
35540;SDS011;21650;48.840;9.162;2022-11-15T02:09:54;7.33;;;4.47;;
35540;SDS011;21650;48.840;9.162;2022-11-15T02:12:21;7.67;;;4.77;;
35540;SDS011;21650;48.840;9.162;2022-11-15T02:14:48;6.37;;;4.27;;
35540;SDS011;21650;48.840;9.162;2022-11-15T02:17:31;7.90;;;4.07;;
35540;SDS011;21650;48.840;9.162;2022-11-15T02:28:56;4.53;;;3.60;;
35540;SDS011;21650;48.840;9.162;2022-11-15T02:36:45;7.83;;;3.93;;
35540;SDS011;21650;48.840;9.162;2022-11-15T02:42:24;4.70;;;3.80;;
35540;SDS011;21650;48.840;9.162;2022-11-15T02:45:11;7.13;;;4.33;;
35540;SDS011;21650;48.840;9.162;2022-11-15T02:47:49;6.50;;;4.13;;
35540;SDS011;21650;48.840;9.162;2022-11-15T02:50:20;7.20;;;4.50;;
35540;SDS011;21650;48.840;9.162;2022-11-15T02:52:49;8.33;;;4.13;;
35540;SDS011;21650;48.840;9.162;2022-11-15T02:55:35;8.17;;;4.17;;
35540;SDS011;21650;48.840;9.162;2022-11-15T03:06:35;6.87;;;4.93;;
35540;SDS011;21650;48.840;9.162;2022-11-15T03:09:07;5.50;;;3.80;;
35540;SDS011;21650;48.840;9.162;2022-11-15T03:11:47;9.90;;;4.47;;
35540;SDS011;21650;48.840;9.162;2022-11-15T03:14:29;7.53;;;3.73;;
35540;SDS011;21650;48.840;9.162;2022-11-15T03:19:42;7.43;;;4.23;;
35540;SDS011;21650;48.840;9.162;2022-11-15T03:22:15;7.40;;;3.73;;
35540;SDS011;21650;48.840;9.162;2022-11-15T03:24:43;5.50;;;3.70;;
35540;SDS011;21650;48.840;9.162;2022-11-15T03:27:13;5.03;;;3.77;;
35540;SDS011;21650;48.840;9.162;2022-11-15T03:29:43;4.73;;;3.30;;
35540;SDS011;21650;48.840;9.162;2022-11-15T03:32:13;3.83;;;3.03;;
35540;SDS011;21650;48.840;9.162;2022-11-15T03:34:47;5.63;;;3.47;;
35540;SDS011;21650;48.840;9.162;2022-11-15T03:37:17;5.70;;;3.23;;
35540;SDS011;21650;48.840;9.162;2022-11-15T03:39:47;4.53;;;3.13;;
35540;SDS011;21650;48.840;9.162;2022-11-15T03:45:04;4.97;;;3.90;;
35540;SDS011;21650;48.840;9.162;2022-11-15T03:50:15;5.53;;;3.70;;
35540;SDS011;21650;48.840;9.162;2022-11-15T03:52:47;5.30;;;3.93;;
35540;SDS011;21650;48.840;9.162;2022-11-15T03:55:18;5.83;;;3.73;;
35540;SDS011;21650;48.840;9.162;2022-11-15T03:57:44;7.80;;;3.13;;
35540;SDS011;21650;48.840;9.162;2022-11-15T04:00:12;7.23;;;3.23;;
35540;SDS011;21650;48.840;9.162;2022-11-15T04:02:38;4.87;;;3.40;;
35540;SDS011;21650;48.840;9.162;2022-11-15T04:05:03;6.80;;;4.20;;
35540;SDS011;21650;48.840;9.162;2022-11-15T04:07:29;7.13;;;4.03;;
35540;SDS011;21650;48.840;9.162;2022-11-15T04:09:55;5.90;;;4.50;;
35540;SDS011;21650;48.840;9.162;2022-11-15T04:15:04;6.40;;;4.13;;
35540;SDS011;21650;48.840;9.162;2022-11-15T04:17:32;9.30;;;4.70;;
35540;SDS011;21650;48.840;9.162;2022-11-15T04:20:03;8.90;;;4.53;;
35540;SDS011;21650;48.840;9.162;2022-11-15T04:22:52;5.67;;;4.60;;
35540;SDS011;21650;48.840;9.162;2022-11-15T04:25:37;7.83;;;4.53;;
35540;SDS011;21650;48.840;9.162;2022-11-15T04:28:03;6.73;;;5.03;;
35540;SDS011;21650;48.840;9.162;2022-11-15T04:30:28;6.40;;;4.40;;
35540;SDS011;21650;48.840;9.162;2022-11-15T04:32:54;8.13;;;4.53;;
35540;SDS011;21650;48.840;9.162;2022-11-15T04:35:19;6.73;;;4.43;;
35540;SDS011;21650;48.840;9.162;2022-11-15T04:37:45;9.70;;;4.60;;
35540;SDS011;21650;48.840;9.162;2022-11-15T04:40:10;5.17;;;4.10;;
35540;SDS011;21650;48.840;9.162;2022-11-15T04:42:36;6.17;;;4.30;;
35540;SDS011;21650;48.840;9.162;2022-11-15T04:45:02;8.87;;;5.47;;
35540;SDS011;21650;48.840;9.162;2022-11-15T04:47:27;8.93;;;5.10;;
35540;SDS011;21650;48.840;9.162;2022-11-15T04:49:54;10.10;;;6.03;;
35540;SDS011;21650;48.840;9.162;2022-11-15T04:52:20;9.00;;;5.50;;
35540;SDS011;21650;48.840;9.162;2022-11-15T04:54:45;7.80;;;5.40;;
35540;SDS011;21650;48.840;9.162;2022-11-15T04:57:11;8.63;;;5.10;;
35540;SDS011;21650;48.840;9.162;2022-11-15T04:59:36;10.63;;;4.80;;
35540;SDS011;21650;48.840;9.162;2022-11-15T05:02:02;7.13;;;4.50;;
35540;SDS011;21650;48.840;9.162;2022-11-15T05:04:27;7.73;;;4.47;;
35540;SDS011;21650;48.840;9.162;2022-11-15T05:06:53;5.87;;;4.00;;
35540;SDS011;21650;48.840;9.162;2022-11-15T05:09:19;7.20;;;4.37;;
35540;SDS011;21650;48.840;9.162;2022-11-15T05:11:45;7.27;;;4.30;;
35540;SDS011;21650;48.840;9.162;2022-11-15T05:14:11;6.00;;;3.83;;
35540;SDS011;21650;48.840;9.162;2022-11-15T05:16:37;5.47;;;4.03;;
35540;SDS011;21650;48.840;9.162;2022-11-15T05:19:03;7.83;;;3.90;;
35540;SDS011;21650;48.840;9.162;2022-11-15T05:21:29;3.97;;;3.40;;
35540;SDS011;21650;48.840;9.162;2022-11-15T05:23:55;5.63;;;3.80;;
35540;SDS011;21650;48.840;9.162;2022-11-15T05:26:21;6.97;;;3.93;;
35540;SDS011;21650;48.840;9.162;2022-11-15T05:28:51;9.33;;;4.20;;
35540;SDS011;21650;48.840;9.162;2022-11-15T05:31:21;6.80;;;3.43;;
35540;SDS011;21650;48.840;9.162;2022-11-15T05:33:46;4.70;;;3.60;;
35540;SDS011;21650;48.840;9.162;2022-11-15T05:36:20;8.73;;;3.93;;
35540;SDS011;21650;48.840;9.162;2022-11-15T05:38:52;4.43;;;3.80;;
35540;SDS011;21650;48.840;9.162;2022-11-15T05:41:19;6.90;;;4.17;;
35540;SDS011;21650;48.840;9.162;2022-11-15T05:43:47;6.40;;;3.67;;
35540;SDS011;21650;48.840;9.162;2022-11-15T05:46:14;6.30;;;3.80;;
35540;SDS011;21650;48.840;9.162;2022-11-15T05:48:42;7.37;;;3.70;;
35540;SDS011;21650;48.840;9.162;2022-11-15T05:51:09;4.73;;;3.70;;
35540;SDS011;21650;48.840;9.162;2022-11-15T05:53:38;8.47;;;4.40;;
35540;SDS011;21650;48.840;9.162;2022-11-15T05:56:04;7.77;;;4.70;;
35540;SDS011;21650;48.840;9.162;2022-11-15T05:58:32;7.90;;;4.30;;
35540;SDS011;21650;48.840;9.162;2022-11-15T06:00:58;7.40;;;4.50;;
35540;SDS011;21650;48.840;9.162;2022-11-15T06:03:25;8.17;;;4.13;;
35540;SDS011;21650;48.840;9.162;2022-11-15T06:05:50;8.43;;;4.90;;
35540;SDS011;21650;48.840;9.162;2022-11-15T06:08:16;7.80;;;4.73;;
35540;SDS011;21650;48.840;9.162;2022-11-15T06:10:41;7.00;;;5.77;;
35540;SDS011;21650;48.840;9.162;2022-11-15T06:13:07;8.20;;;4.90;;
35540;SDS011;21650;48.840;9.162;2022-11-15T06:15:32;8.73;;;6.10;;
35540;SDS011;21650;48.840;9.162;2022-11-15T06:17:59;9.37;;;6.00;;
35540;SDS011;21650;48.840;9.162;2022-11-15T06:20:26;7.63;;;5.00;;
35540;SDS011;21650;48.840;9.162;2022-11-15T06:22:59;5.87;;;4.50;;
35540;SDS011;21650;48.840;9.162;2022-11-15T06:25:27;6.83;;;5.03;;
35540;SDS011;21650;48.840;9.162;2022-11-15T06:27:53;6.77;;;4.77;;
35540;SDS011;21650;48.840;9.162;2022-11-15T06:30:20;7.50;;;4.90;;
35540;SDS011;21650;48.840;9.162;2022-11-15T06:32:46;8.13;;;4.70;;
35540;SDS011;21650;48.840;9.162;2022-11-15T06:35:11;9.40;;;4.80;;
35540;SDS011;21650;48.840;9.162;2022-11-15T06:37:38;8.83;;;4.40;;
35540;SDS011;21650;48.840;9.162;2022-11-15T06:40:03;9.03;;;5.13;;
35540;SDS011;21650;48.840;9.162;2022-11-15T06:42:29;5.87;;;4.20;;
35540;SDS011;21650;48.840;9.162;2022-11-15T06:44:55;7.20;;;5.13;;
35540;SDS011;21650;48.840;9.162;2022-11-15T06:47:20;6.70;;;4.73;;
35540;SDS011;21650;48.840;9.162;2022-11-15T06:49:46;7.80;;;4.63;;
35540;SDS011;21650;48.840;9.162;2022-11-15T06:52:11;7.20;;;4.73;;
35540;SDS011;21650;48.840;9.162;2022-11-15T06:54:37;8.47;;;4.97;;
35540;SDS011;21650;48.840;9.162;2022-11-15T06:57:03;7.20;;;4.33;;
35540;SDS011;21650;48.840;9.162;2022-11-15T06:59:29;8.47;;;4.30;;
35540;SDS011;21650;48.840;9.162;2022-11-15T07:01:55;8.87;;;4.87;;
35540;SDS011;21650;48.840;9.162;2022-11-15T07:04:21;8.27;;;4.50;;
35540;SDS011;21650;48.840;9.162;2022-11-15T07:06:46;8.07;;;4.17;;
35540;SDS011;21650;48.840;9.162;2022-11-15T07:09:13;10.23;;;4.87;;
35540;SDS011;21650;48.840;9.162;2022-11-15T07:11:39;11.10;;;4.67;;
35540;SDS011;21650;48.840;9.162;2022-11-15T07:14:04;7.40;;;4.77;;
35540;SDS011;21650;48.840;9.162;2022-11-15T07:16:30;7.00;;;5.07;;
35540;SDS011;21650;48.840;9.162;2022-11-15T07:18:55;7.03;;;4.50;;
35540;SDS011;21650;48.840;9.162;2022-11-15T07:21:21;8.27;;;4.73;;
35540;SDS011;21650;48.840;9.162;2022-11-15T07:23:47;7.17;;;4.43;;
35540;SDS011;21650;48.840;9.162;2022-11-15T07:26:12;8.97;;;4.17;;
35540;SDS011;21650;48.840;9.162;2022-11-15T07:28:38;5.27;;;3.73;;
35540;SDS011;21650;48.840;9.162;2022-11-15T07:31:04;5.47;;;3.20;;
35540;SDS011;21650;48.840;9.162;2022-11-15T07:33:31;4.87;;;3.23;;
35540;SDS011;21650;48.840;9.162;2022-11-15T07:36:00;5.87;;;3.57;;
35540;SDS011;21650;48.840;9.162;2022-11-15T07:38:29;5.53;;;3.37;;
35540;SDS011;21650;48.840;9.162;2022-11-15T07:40:59;6.93;;;3.80;;
35540;SDS011;21650;48.840;9.162;2022-11-15T07:43:25;7.90;;;5.77;;
35540;SDS011;21650;48.840;9.162;2022-11-15T07:45:52;11.23;;;5.60;;
35540;SDS011;21650;48.840;9.162;2022-11-15T07:48:18;8.90;;;4.67;;
35540;SDS011;21650;48.840;9.162;2022-11-15T07:50:44;8.07;;;4.23;;
35540;SDS011;21650;48.840;9.162;2022-11-15T07:53:10;9.00;;;4.43;;
35540;SDS011;21650;48.840;9.162;2022-11-15T07:55:36;7.97;;;4.23;;
35540;SDS011;21650;48.840;9.162;2022-11-15T07:58:02;11.63;;;4.63;;
35540;SDS011;21650;48.840;9.162;2022-11-15T08:00:29;7.00;;;4.40;;
35540;SDS011;21650;48.840;9.162;2022-11-15T08:03:05;10.60;;;4.80;;
35540;SDS011;21650;48.840;9.162;2022-11-15T08:05:32;8.77;;;4.93;;
35540;SDS011;21650;48.840;9.162;2022-11-15T08:07:59;8.57;;;4.57;;
35540;SDS011;21650;48.840;9.162;2022-11-15T08:10:25;10.27;;;4.77;;
35540;SDS011;21650;48.840;9.162;2022-11-15T08:13:04;8.33;;;4.30;;
35540;SDS011;21650;48.840;9.162;2022-11-15T08:15:32;5.67;;;4.27;;
35540;SDS011;21650;48.840;9.162;2022-11-15T08:17:59;8.53;;;4.30;;
35540;SDS011;21650;48.840;9.162;2022-11-15T08:20:28;6.13;;;4.30;;
35540;SDS011;21650;48.840;9.162;2022-11-15T08:22:58;11.57;;;4.97;;
35540;SDS011;21650;48.840;9.162;2022-11-15T08:25:26;8.90;;;4.60;;
35540;SDS011;21650;48.840;9.162;2022-11-15T08:27:53;8.70;;;4.40;;
35540;SDS011;21650;48.840;9.162;2022-11-15T08:30:19;6.83;;;4.30;;
35540;SDS011;21650;48.840;9.162;2022-11-15T08:32:45;9.07;;;4.57;;
35540;SDS011;21650;48.840;9.162;2022-11-15T08:35:10;8.17;;;4.23;;
35540;SDS011;21650;48.840;9.162;2022-11-15T08:37:36;5.63;;;4.23;;
35540;SDS011;21650;48.840;9.162;2022-11-15T08:40:02;8.43;;;4.50;;
35540;SDS011;21650;48.840;9.162;2022-11-15T08:42:28;7.80;;;5.00;;
35540;SDS011;21650;48.840;9.162;2022-11-15T08:44:54;6.57;;;4.43;;
35540;SDS011;21650;48.840;9.162;2022-11-15T08:47:19;9.67;;;4.60;;
35540;SDS011;21650;48.840;9.162;2022-11-15T08:49:45;17.83;;;4.83;;
35540;SDS011;21650;48.840;9.162;2022-11-15T08:52:10;7.70;;;4.63;;
35540;SDS011;21650;48.840;9.162;2022-11-15T08:54:36;8.13;;;5.20;;
35540;SDS011;21650;48.840;9.162;2022-11-15T08:57:02;8.67;;;5.10;;
35540;SDS011;21650;48.840;9.162;2022-11-15T08:59:27;8.90;;;5.60;;
35540;SDS011;21650;48.840;9.162;2022-11-15T09:01:53;12.60;;;5.13;;
35540;SDS011;21650;48.840;9.162;2022-11-15T09:04:18;7.70;;;4.17;;
35540;SDS011;21650;48.840;9.162;2022-11-15T09:06:44;9.20;;;5.07;;
35540;SDS011;21650;48.840;9.162;2022-11-15T09:09:09;8.90;;;4.87;;
35540;SDS011;21650;48.840;9.162;2022-11-15T09:11:35;8.53;;;5.13;;
35540;SDS011;21650;48.840;9.162;2022-11-15T09:14:00;10.57;;;5.10;;
35540;SDS011;21650;48.840;9.162;2022-11-15T09:16:26;6.80;;;4.80;;
35540;SDS011;21650;48.840;9.162;2022-11-15T09:18:52;10.27;;;5.67;;
35540;SDS011;21650;48.840;9.162;2022-11-15T09:21:19;9.00;;;5.13;;
35540;SDS011;21650;48.840;9.162;2022-11-15T09:23:44;8.93;;;5.50;;
35540;SDS011;21650;48.840;9.162;2022-11-15T09:26:10;9.47;;;5.40;;
35540;SDS011;21650;48.840;9.162;2022-11-15T09:28:35;10.77;;;5.40;;
35540;SDS011;21650;48.840;9.162;2022-11-15T09:31:02;12.20;;;5.43;;
35540;SDS011;21650;48.840;9.162;2022-11-15T09:33:29;10.80;;;5.70;;
35540;SDS011;21650;48.840;9.162;2022-11-15T09:35:59;9.53;;;5.87;;
35540;SDS011;21650;48.840;9.162;2022-11-15T09:38:26;8.87;;;5.03;;
35540;SDS011;21650;48.840;9.162;2022-11-15T09:40:56;11.27;;;5.13;;
35540;SDS011;21650;48.840;9.162;2022-11-15T09:49:24;10.30;;;5.03;;
35540;SDS011;21650;48.840;9.162;2022-11-15T09:51:51;7.30;;;5.43;;
35540;SDS011;21650;48.840;9.162;2022-11-15T10:05:10;11.77;;;5.80;;
35540;SDS011;21650;48.840;9.162;2022-11-15T10:07:53;9.63;;;5.43;;
35540;SDS011;21650;48.840;9.162;2022-11-15T10:10:34;10.40;;;6.00;;
35540;SDS011;21650;48.840;9.162;2022-11-15T10:13:06;8.63;;;5.70;;
35540;SDS011;21650;48.840;9.162;2022-11-15T10:15:41;12.17;;;6.93;;
35540;SDS011;21650;48.840;9.162;2022-11-15T10:21:18;11.47;;;5.80;;
35540;SDS011;21650;48.840;9.162;2022-11-15T10:23:47;11.07;;;5.30;;
35540;SDS011;21650;48.840;9.162;2022-11-15T10:26:14;9.80;;;6.00;;
35540;SDS011;21650;48.840;9.162;2022-11-15T10:28:41;8.10;;;6.00;;
35540;SDS011;21650;48.840;9.162;2022-11-15T10:31:23;13.27;;;6.17;;
35540;SDS011;21650;48.840;9.162;2022-11-15T10:33:51;8.83;;;6.33;;
35540;SDS011;21650;48.840;9.162;2022-11-15T10:36:36;13.17;;;6.87;;
35540;SDS011;21650;48.840;9.162;2022-11-15T10:39:01;11.67;;;5.90;;
35540;SDS011;21650;48.840;9.162;2022-11-15T10:46:36;15.77;;;6.90;;
35540;SDS011;21650;48.840;9.162;2022-11-15T10:49:15;7.63;;;4.90;;
35540;SDS011;21650;48.840;9.162;2022-11-15T10:54:14;10.33;;;5.20;;
35540;SDS011;21650;48.840;9.162;2022-11-15T10:56:50;11.23;;;6.00;;
35540;SDS011;21650;48.840;9.162;2022-11-15T10:59:23;9.77;;;5.57;;
35540;SDS011;21650;48.840;9.162;2022-11-15T11:01:52;6.50;;;4.87;;
35540;SDS011;21650;48.840;9.162;2022-11-15T11:04:18;10.33;;;5.60;;
35540;SDS011;21650;48.840;9.162;2022-11-15T11:11:54;16.43;;;6.20;;
35540;SDS011;21650;48.840;9.162;2022-11-15T11:14:21;13.20;;;6.10;;
35540;SDS011;21650;48.840;9.162;2022-11-15T11:19:36;9.33;;;5.83;;
35540;SDS011;21650;48.840;9.162;2022-11-15T11:22:12;7.07;;;5.10;;
35540;SDS011;21650;48.840;9.162;2022-11-15T11:25:04;11.43;;;6.07;;
35540;SDS011;21650;48.840;9.162;2022-11-15T11:28:05;13.27;;;5.50;;
35540;SDS011;21650;48.840;9.162;2022-11-15T11:38:40;8.23;;;5.40;;
35540;SDS011;21650;48.840;9.162;2022-11-15T11:46:22;7.93;;;5.03;;
35540;SDS011;21650;48.840;9.162;2022-11-15T11:49:09;10.87;;;5.70;;
35540;SDS011;21650;48.840;9.162;2022-11-15T11:54:37;9.03;;;4.90;;
35540;SDS011;21650;48.840;9.162;2022-11-15T12:05:22;10.47;;;4.83;;
35540;SDS011;21650;48.840;9.162;2022-11-15T12:08:02;10.20;;;5.47;;
35540;SDS011;21650;48.840;9.162;2022-11-15T12:10:45;5.80;;;4.37;;
35540;SDS011;21650;48.840;9.162;2022-11-15T12:13:19;8.47;;;4.67;;
35540;SDS011;21650;48.840;9.162;2022-11-15T12:15:54;11.07;;;4.47;;
35540;SDS011;21650;48.840;9.162;2022-11-15T12:18:26;6.37;;;4.73;;
35540;SDS011;21650;48.840;9.162;2022-11-15T12:20:57;10.73;;;5.60;;
35540;SDS011;21650;48.840;9.162;2022-11-15T12:23:27;10.10;;;4.80;;
35540;SDS011;21650;48.840;9.162;2022-11-15T12:25:58;10.00;;;5.03;;
35540;SDS011;21650;48.840;9.162;2022-11-15T12:28:55;9.30;;;4.97;;
35540;SDS011;21650;48.840;9.162;2022-11-15T12:34:01;7.50;;;4.83;;
35540;SDS011;21650;48.840;9.162;2022-11-15T12:36:39;8.47;;;4.43;;
35540;SDS011;21650;48.840;9.162;2022-11-15T12:39:08;22.03;;;7.33;;
35540;SDS011;21650;48.840;9.162;2022-11-15T13:02:23;11.20;;;6.10;;
35540;SDS011;21650;48.840;9.162;2022-11-15T13:04:55;16.67;;;5.83;;
35540;SDS011;21650;48.840;9.162;2022-11-15T13:17:39;11.97;;;6.00;;
35540;SDS011;21650;48.840;9.162;2022-11-15T13:22:41;13.23;;;5.83;;
35540;SDS011;21650;48.840;9.162;2022-11-15T13:30:49;14.30;;;7.17;;
35540;SDS011;21650;48.840;9.162;2022-11-15T13:33:35;13.97;;;7.00;;
35540;SDS011;21650;48.840;9.162;2022-11-15T13:36:03;34.30;;;9.53;;
35540;SDS011;21650;48.840;9.162;2022-11-15T13:38:44;14.03;;;7.37;;
35540;SDS011;21650;48.840;9.162;2022-11-15T13:41:20;15.17;;;6.40;;
35540;SDS011;21650;48.840;9.162;2022-11-15T13:43:48;14.27;;;8.50;;
35540;SDS011;21650;48.840;9.162;2022-11-15T13:46:17;14.00;;;6.30;;
35540;SDS011;21650;48.840;9.162;2022-11-15T13:49:00;15.93;;;6.57;;
35540;SDS011;21650;48.840;9.162;2022-11-15T13:51:39;9.43;;;5.53;;
35540;SDS011;21650;48.840;9.162;2022-11-15T13:54:15;12.53;;;5.30;;
35540;SDS011;21650;48.840;9.162;2022-11-15T13:57:05;9.40;;;4.67;;
35540;SDS011;21650;48.840;9.162;2022-11-15T13:59:44;7.40;;;4.93;;
35540;SDS011;21650;48.840;9.162;2022-11-15T14:02:13;9.17;;;5.00;;
35540;SDS011;21650;48.840;9.162;2022-11-15T14:04:46;8.87;;;5.07;;
35540;SDS011;21650;48.840;9.162;2022-11-15T14:07:21;7.63;;;4.90;;
35540;SDS011;21650;48.840;9.162;2022-11-15T14:09:48;11.00;;;5.07;;
35540;SDS011;21650;48.840;9.162;2022-11-15T14:12:50;12.80;;;4.43;;
35540;SDS011;21650;48.840;9.162;2022-11-15T14:15:23;5.87;;;4.37;;
35540;SDS011;21650;48.840;9.162;2022-11-15T14:17:52;13.40;;;5.43;;
35540;SDS011;21650;48.840;9.162;2022-11-15T14:20:28;12.63;;;6.20;;
35540;SDS011;21650;48.840;9.162;2022-11-15T14:25:54;9.10;;;4.70;;
35540;SDS011;21650;48.840;9.162;2022-11-15T14:30:47;12.63;;;8.17;;
35540;SDS011;21650;48.840;9.162;2022-11-15T14:36:11;8.63;;;5.80;;
35540;SDS011;21650;48.840;9.162;2022-11-15T14:38:41;8.30;;;5.47;;
35540;SDS011;21650;48.840;9.162;2022-11-15T14:41:23;9.37;;;5.47;;
35540;SDS011;21650;48.840;9.162;2022-11-15T14:43:51;10.97;;;5.70;;
35540;SDS011;21650;48.840;9.162;2022-11-15T14:46:17;9.93;;;5.60;;
35540;SDS011;21650;48.840;9.162;2022-11-15T14:48:43;7.27;;;4.90;;
35540;SDS011;21650;48.840;9.162;2022-11-15T14:51:11;6.83;;;5.23;;
35540;SDS011;21650;48.840;9.162;2022-11-15T14:53:38;8.77;;;5.20;;
35540;SDS011;21650;48.840;9.162;2022-11-15T14:56:03;7.87;;;5.83;;
35540;SDS011;21650;48.840;9.162;2022-11-15T14:58:29;11.43;;;6.13;;
35540;SDS011;21650;48.840;9.162;2022-11-15T15:00:55;8.33;;;5.30;;
35540;SDS011;21650;48.840;9.162;2022-11-15T15:03:20;7.77;;;5.07;;
35540;SDS011;21650;48.840;9.162;2022-11-15T15:05:46;6.83;;;4.93;;
35540;SDS011;21650;48.840;9.162;2022-11-15T15:08:11;7.93;;;4.73;;
35540;SDS011;21650;48.840;9.162;2022-11-15T15:10:38;10.60;;;5.73;;
35540;SDS011;21650;48.840;9.162;2022-11-15T15:13:06;15.43;;;5.23;;
35540;SDS011;21650;48.840;9.162;2022-11-15T15:15:40;9.77;;;5.03;;
35540;SDS011;21650;48.840;9.162;2022-11-15T15:18:05;8.87;;;5.03;;
35540;SDS011;21650;48.840;9.162;2022-11-15T15:20:33;8.23;;;4.53;;
35540;SDS011;21650;48.840;9.162;2022-11-15T15:22:59;9.23;;;4.60;;
35540;SDS011;21650;48.840;9.162;2022-11-15T15:25:29;6.77;;;4.33;;
35540;SDS011;21650;48.840;9.162;2022-11-15T15:27:58;7.87;;;3.93;;
35540;SDS011;21650;48.840;9.162;2022-11-15T15:30:24;7.47;;;5.03;;
35540;SDS011;21650;48.840;9.162;2022-11-15T15:32:51;6.73;;;4.97;;
35540;SDS011;21650;48.840;9.162;2022-11-15T15:35:17;4.90;;;3.67;;
35540;SDS011;21650;48.840;9.162;2022-11-15T15:37:43;5.63;;;4.10;;
35540;SDS011;21650;48.840;9.162;2022-11-15T15:40:20;4.70;;;3.60;;
35540;SDS011;21650;48.840;9.162;2022-11-15T15:42:48;8.67;;;3.90;;
35540;SDS011;21650;48.840;9.162;2022-11-15T15:45:13;8.97;;;3.83;;
35540;SDS011;21650;48.840;9.162;2022-11-15T15:47:40;6.57;;;3.17;;
35540;SDS011;21650;48.840;9.162;2022-11-15T15:50:23;4.90;;;4.00;;
35540;SDS011;21650;48.840;9.162;2022-11-15T15:52:53;5.53;;;3.83;;
35540;SDS011;21650;48.840;9.162;2022-11-15T15:55:20;6.57;;;4.20;;
35540;SDS011;21650;48.840;9.162;2022-11-15T15:57:46;4.27;;;3.50;;
35540;SDS011;21650;48.840;9.162;2022-11-15T16:00:12;9.57;;;4.70;;
35540;SDS011;21650;48.840;9.162;2022-11-15T16:02:39;6.47;;;4.60;;
35540;SDS011;21650;48.840;9.162;2022-11-15T16:05:05;10.53;;;6.27;;
35540;SDS011;21650;48.840;9.162;2022-11-15T16:07:31;8.20;;;4.87;;
35540;SDS011;21650;48.840;9.162;2022-11-15T16:09:57;9.00;;;4.83;;
35540;SDS011;21650;48.840;9.162;2022-11-15T16:12:25;11.90;;;5.57;;
35540;SDS011;21650;48.840;9.162;2022-11-15T16:14:52;7.70;;;5.10;;
35540;SDS011;21650;48.840;9.162;2022-11-15T16:17:18;9.53;;;5.10;;
35540;SDS011;21650;48.840;9.162;2022-11-15T16:19:49;9.07;;;5.03;;
35540;SDS011;21650;48.840;9.162;2022-11-15T16:22:15;8.80;;;5.97;;
35540;SDS011;21650;48.840;9.162;2022-11-15T16:24:40;7.80;;;5.10;;
35540;SDS011;21650;48.840;9.162;2022-11-15T16:27:10;8.13;;;4.60;;
35540;SDS011;21650;48.840;9.162;2022-11-15T16:29:39;6.80;;;4.97;;
35540;SDS011;21650;48.840;9.162;2022-11-15T16:32:04;8.93;;;4.73;;
35540;SDS011;21650;48.840;9.162;2022-11-15T16:34:30;8.40;;;4.63;;
35540;SDS011;21650;48.840;9.162;2022-11-15T16:36:55;7.23;;;4.30;;
35540;SDS011;21650;48.840;9.162;2022-11-15T16:39:21;7.93;;;4.63;;
35540;SDS011;21650;48.840;9.162;2022-11-15T16:41:47;12.43;;;6.23;;
35540;SDS011;21650;48.840;9.162;2022-11-15T16:44:13;6.73;;;4.17;;
35540;SDS011;21650;48.840;9.162;2022-11-15T16:46:40;10.70;;;4.83;;
35540;SDS011;21650;48.840;9.162;2022-11-15T16:49:12;12.60;;;5.47;;
35540;SDS011;21650;48.840;9.162;2022-11-15T16:51:41;8.80;;;4.93;;
35540;SDS011;21650;48.840;9.162;2022-11-15T16:54:08;7.47;;;4.93;;
35540;SDS011;21650;48.840;9.162;2022-11-15T16:56:34;10.87;;;4.70;;
35540;SDS011;21650;48.840;9.162;2022-11-15T16:59:03;7.43;;;4.87;;
35540;SDS011;21650;48.840;9.162;2022-11-15T17:01:35;7.93;;;5.10;;
35540;SDS011;21650;48.840;9.162;2022-11-15T17:04:10;9.20;;;4.93;;
35540;SDS011;21650;48.840;9.162;2022-11-15T17:06:38;11.77;;;5.03;;
35540;SDS011;21650;48.840;9.162;2022-11-15T17:09:04;8.07;;;4.17;;
35540;SDS011;21650;48.840;9.162;2022-11-15T17:11:31;7.03;;;3.80;;
35540;SDS011;21650;48.840;9.162;2022-11-15T17:13:57;5.57;;;4.47;;
35540;SDS011;21650;48.840;9.162;2022-11-15T17:16:23;5.97;;;4.23;;
35540;SDS011;21650;48.840;9.162;2022-11-15T17:18:50;6.67;;;4.20;;
35540;SDS011;21650;48.840;9.162;2022-11-15T17:21:17;9.27;;;4.20;;